Time;durP1;ratioP1;P1;durP2;ratioP2;P2;SDS_P1;SDS_P2;PMS_P1;PMS_P2;Temp;Humidity;BMP_temperature;BMP_pressure;BME280_temperature;BME280_humidity;BME280_pressure;Samples;Min_cycle;Max_cycle;Signal;HPM_P1;HPM_P2
2021/03/02 00:01:42;;;;;;;26.88;12.85;;;;;;;;;;5043077;28;20025;-45
2021/03/02 00:04:08;;;;;;;24.83;13.02;;;;;;;;;;5044125;28;20052;-44
2021/03/02 00:06:34;;;;;;;23.25;12.63;;;;;;;;;;5039539;28;20053;-45
2021/03/02 00:09:01;;;;;;;24.85;13.90;;;;;;;;;;5049690;28;20025;-45
2021/03/02 00:11:28;;;;;;;25.17;12.23;;;;;;;;;;5051298;28;20047;-45
2021/03/02 00:13:54;;;;;;;24.20;12.40;;;;;;;;;;5052909;28;20033;-45
2021/03/02 00:16:25;;;;;;;25.17;13.52;;;;;;;;;;5044513;28;20044;-45
2021/03/02 00:18:55;;;;;;;24.42;13.23;;;;;;;;;;5053181;28;20021;-44
2021/03/02 00:21:24;;;;;;;26.70;12.85;;;;;;;;;;5041542;28;20080;-45
2021/03/02 00:23:54;;;;;;;22.77;12.45;;;;;;;;;;5051292;28;20025;-46
2021/03/02 00:26:24;;;;;;;27.33;13.80;;;;;;;;;;5044649;28;20469;-45
2021/03/02 00:28:51;;;;;;;22.45;12.13;;;;;;;;;;5040898;28;20064;-50
2021/03/02 00:31:17;;;;;;;25.13;12.88;;;;;;;;;;5052958;28;20041;-45
2021/03/02 00:33:45;;;;;;;27.60;14.43;;;;;;;;;;5039554;28;20029;-47
2021/03/02 00:36:11;;;;;;;27.67;13.57;;;;;;;;;;5052732;28;20032;-45
2021/03/02 00:38:37;;;;;;;30.88;15.27;;;;;;;;;;5034062;28;20025;-47
2021/03/02 00:41:03;;;;;;;38.17;16.23;;;;;;;;;;5047058;28;20104;-45
2021/03/02 00:43:29;;;;;;;41.30;18.02;;;;;;;;;;5052714;28;20104;-45
2021/03/02 00:45:55;;;;;;;41.67;18.23;;;;;;;;;;5052788;28;20150;-45
2021/03/02 00:48:22;;;;;;;42.72;18.88;;;;;;;;;;5046302;28;20547;-44
2021/03/02 00:50:48;;;;;;;47.17;19.30;;;;;;;;;;5039451;28;20424;-45
2021/03/02 00:53:14;;;;;;;43.17;19.00;;;;;;;;;;5045485;28;20025;-46
2021/03/02 00:55:40;;;;;;;47.97;20.25;;;;;;;;;;5033118;28;20116;-45
2021/03/02 00:58:06;;;;;;;44.03;20.23;;;;;;;;;;5046267;28;20144;-44
2021/03/02 01:00:32;;;;;;;45.65;19.55;;;;;;;;;;5051562;28;20029;-44
2021/03/02 01:02:58;;;;;;;47.67;19.27;;;;;;;;;;5052705;28;20033;-45
2021/03/02 01:05:24;;;;;;;47.13;18.95;;;;;;;;;;5052342;28;20629;-44
2021/03/02 01:07:49;;;;;;;45.70;17.48;;;;;;;;;;5051390;28;20499;-44
2021/03/02 01:10:15;;;;;;;36.38;18.13;;;;;;;;;;5037088;28;20026;-45
2021/03/02 01:12:41;;;;;;;38.70;17.73;;;;;;;;;;5039455;28;20116;-45
2021/03/02 01:15:09;;;;;;;40.83;17.70;;;;;;;;;;5052236;28;20159;-45
2021/03/02 01:17:35;;;;;;;44.08;18.42;;;;;;;;;;5050994;28;20028;-47
2021/03/02 01:20:01;;;;;;;42.13;17.95;;;;;;;;;;5042976;28;20136;-47
2021/03/02 01:22:27;;;;;;;38.47;18.27;;;;;;;;;;5051459;28;20423;-46
2021/03/02 01:24:53;;;;;;;35.00;16.95;;;;;;;;;;5052184;28;20029;-47
2021/03/02 01:27:19;;;;;;;31.20;14.68;;;;;;;;;;5046352;28;20500;-47
2021/03/02 01:29:45;;;;;;;27.45;13.23;;;;;;;;;;5045768;28;20057;-45
2021/03/02 01:32:11;;;;;;;39.58;16.17;;;;;;;;;;5051980;28;20427;-45
2021/03/02 01:34:37;;;;;;;27.25;13.43;;;;;;;;;;5051669;28;20036;-46
2021/03/02 01:37:03;;;;;;;31.58;15.50;;;;;;;;;;5040731;28;20029;-46
2021/03/02 01:39:30;;;;;;;28.05;14.20;;;;;;;;;;5032091;28;20117;-46
2021/03/02 01:41:57;;;;;;;29.13;13.20;;;;;;;;;;5032311;28;20357;-44
2021/03/02 01:44:23;;;;;;;23.23;12.30;;;;;;;;;;5032272;28;20026;-45
2021/03/02 01:46:50;;;;;;;29.88;11.98;;;;;;;;;;5051092;28;20039;-44
2021/03/02 01:49:16;;;;;;;26.95;12.68;;;;;;;;;;5049367;28;20040;-45
2021/03/02 01:51:44;;;;;;;27.05;12.18;;;;;;;;;;5046453;28;20395;-45
2021/03/02 01:54:11;;;;;;;25.17;12.77;;;;;;;;;;5051471;28;20033;-44
2021/03/02 01:56:37;;;;;;;24.35;11.75;;;;;;;;;;5049637;28;20107;-46
2021/03/02 01:59:04;;;;;;;23.90;12.20;;;;;;;;;;5051880;28;20163;-44
2021/03/02 02:01:29;;;;;;;24.88;11.93;;;;;;;;;;5052442;28;20413;-45
2021/03/02 02:03:58;;;;;;;23.95;11.65;;;;;;;;;;5051901;28;20029;-45
2021/03/02 02:06:35;;;;;;;22.55;11.55;;;;;;;;;;5048890;28;20473;-44
2021/03/02 02:09:04;;;;;;;19.25;9.90;;;;;;;;;;5048729;28;20124;-45
2021/03/02 02:11:42;;;;;;;16.77;9.68;;;;;;;;;;5051567;28;20053;-46
2021/03/02 02:14:18;;;;;;;18.33;10.10;;;;;;;;;;5044589;28;20029;-44
2021/03/02 02:16:46;;;;;;;17.15;9.30;;;;;;;;;;5045289;28;20030;-48
2021/03/02 02:19:21;;;;;;;17.98;9.80;;;;;;;;;;5049810;28;20040;-45
2021/03/02 02:21:55;;;;;;;16.90;10.23;;;;;;;;;;5045905;28;20103;-45
2021/03/02 02:24:26;;;;;;;19.27;9.88;;;;;;;;;;5044125;28;20028;-45
2021/03/02 02:27:00;;;;;;;17.83;9.93;;;;;;;;;;5044436;28;20120;-44
2021/03/02 02:29:31;;;;;;;25.90;10.75;;;;;;;;;;5031818;28;20728;-44
2021/03/02 02:31:58;;;;;;;16.80;9.10;;;;;;;;;;5034991;28;20037;-45
2021/03/02 02:34:25;;;;;;;18.05;9.95;;;;;;;;;;5047526;28;20035;-45
2021/03/02 02:36:53;;;;;;;22.23;10.52;;;;;;;;;;5055250;28;20513;-44
2021/03/02 02:39:19;;;;;;;25.13;10.70;;;;;;;;;;5047938;28;20029;-48
2021/03/02 02:41:47;;;;;;;20.45;10.82;;;;;;;;;;5054970;28;20100;-47
2021/03/02 02:44:14;;;;;;;17.25;9.77;;;;;;;;;;5046586;28;20035;-47
2021/03/02 02:46:40;;;;;;;18.98;10.32;;;;;;;;;;5054626;28;20060;-48
2021/03/02 02:49:09;;;;;;;18.92;9.57;;;;;;;;;;5053890;28;20040;-45
2021/03/02 02:51:36;;;;;;;22.58;10.70;;;;;;;;;;5048645;28;20057;-45
2021/03/02 02:54:02;;;;;;;20.75;10.15;;;;;;;;;;5054393;28;20107;-45
2021/03/02 02:56:29;;;;;;;23.58;10.43;;;;;;;;;;5054917;28;20112;-47
2021/03/02 02:59:02;;;;;;;18.75;10.48;;;;;;;;;;5054928;28;20067;-45
2021/03/02 03:01:29;;;;;;;14.23;9.18;;;;;;;;;;5043779;28;20033;-44
2021/03/02 03:03:57;;;;;;;16.13;8.77;;;;;;;;;;5049690;28;20045;-45
2021/03/02 03:06:25;;;;;;;21.83;9.23;;;;;;;;;;5051119;28;20047;-47
2021/03/02 03:08:52;;;;;;;21.15;9.52;;;;;;;;;;5049779;28;20029;-45
2021/03/02 03:11:19;;;;;;;16.95;9.55;;;;;;;;;;5048974;28;20036;-45
2021/03/02 03:13:46;;;;;;;24.58;8.20;;;;;;;;;;5049905;28;20090;-47
2021/03/02 03:16:12;;;;;;;29.58;9.30;;;;;;;;;;5044287;28;20043;-45
2021/03/02 03:18:44;;;;;;;15.35;8.95;;;;;;;;;;5044290;28;20104;-44
2021/03/02 03:21:11;;;;;;;18.38;9.80;;;;;;;;;;5036300;28;20057;-44
2021/03/02 03:23:38;;;;;;;18.25;9.95;;;;;;;;;;5053348;28;20059;-44
2021/03/02 03:26:05;;;;;;;20.23;9.43;;;;;;;;;;5054329;28;20041;-45
2021/03/02 03:28:31;;;;;;;18.58;9.70;;;;;;;;;;5053686;28;20560;-45
2021/03/02 03:30:57;;;;;;;20.45;9.88;;;;;;;;;;5045731;28;20119;-46
2021/03/02 03:33:23;;;;;;;21.83;10.13;;;;;;;;;;5053913;28;20033;-45
2021/03/02 03:35:51;;;;;;;16.17;9.63;;;;;;;;;;5054083;28;20048;-45
2021/03/02 03:38:17;;;;;;;20.63;10.00;;;;;;;;;;5053640;28;20082;-45
2021/03/02 03:40:43;;;;;;;17.02;9.50;;;;;;;;;;5047542;28;20029;-44
2021/03/02 03:43:09;;;;;;;19.83;9.73;;;;;;;;;;5050910;28;20025;-44
2021/03/02 03:45:35;;;;;;;18.40;9.85;;;;;;;;;;5043375;28;20025;-45
2021/03/02 03:48:01;;;;;;;18.23;9.68;;;;;;;;;;5041829;28;20041;-44
2021/03/02 03:50:27;;;;;;;23.42;9.20;;;;;;;;;;5038845;28;20021;-47
2021/03/02 03:52:55;;;;;;;14.52;8.38;;;;;;;;;;5050810;28;20064;-45
2021/03/02 03:55:24;;;;;;;17.58;9.57;;;;;;;;;;5053647;28;20096;-45
2021/03/02 03:57:51;;;;;;;15.18;9.15;;;;;;;;;;5047950;28;20120;-46
2021/03/02 04:00:17;;;;;;;16.67;8.77;;;;;;;;;;5033793;28;20096;-46
2021/03/02 04:02:43;;;;;;;17.60;9.85;;;;;;;;;;5042890;28;20025;-48
2021/03/02 04:05:10;;;;;;;17.60;9.57;;;;;;;;;;5041636;28;20105;-48
2021/03/02 04:07:36;;;;;;;19.83;10.13;;;;;;;;;;5033694;28;20101;-45
2021/03/02 04:10:04;;;;;;;24.42;9.52;;;;;;;;;;5045321;28;20112;-45
2021/03/02 04:12:39;;;;;;;31.08;9.38;;;;;;;;;;5033762;28;20053;-45
2021/03/02 04:15:09;;;;;;;30.33;10.98;;;;;;;;;;5033451;28;20421;-45
2021/03/02 04:17:35;;;;;;;38.90;10.80;;;;;;;;;;5047943;28;20018;-45
2021/03/02 04:20:02;;;;;;;21.25;9.52;;;;;;;;;;5033382;28;20068;-45
2021/03/02 04:22:30;;;;;;;14.15;8.65;;;;;;;;;;5036245;28;20113;-47
2021/03/02 04:24:56;;;;;;;16.27;8.32;;;;;;;;;;5035710;28;20029;-45
2021/03/02 04:27:22;;;;;;;22.90;9.05;;;;;;;;;;5052876;28;20079;-46
2021/03/02 04:29:48;;;;;;;15.45;9.15;;;;;;;;;;5052796;28;20029;-46
2021/03/02 04:32:13;;;;;;;22.70;9.60;;;;;;;;;;5044817;28;20150;-44
2021/03/02 04:34:39;;;;;;;18.80;8.63;;;;;;;;;;5052574;28;20037;-45
2021/03/02 04:37:05;;;;;;;21.58;8.25;;;;;;;;;;5052848;28;20484;-44
2021/03/02 04:39:31;;;;;;;16.75;8.75;;;;;;;;;;5052424;28;20053;-45
2021/03/02 04:41:57;;;;;;;15.43;8.75;;;;;;;;;;5050907;28;20029;-47
2021/03/02 04:44:23;;;;;;;14.07;7.68;;;;;;;;;;5052583;28;20029;-44
2021/03/02 04:46:49;;;;;;;13.45;7.35;;;;;;;;;;5052863;28;20025;-44
2021/03/02 04:49:15;;;;;;;13.48;7.68;;;;;;;;;;5051463;28;20029;-45
2021/03/02 04:51:41;;;;;;;12.40;7.40;;;;;;;;;;5038577;28;20032;-44
2021/03/02 04:54:07;;;;;;;11.10;7.30;;;;;;;;;;5051753;28;20025;-46
2021/03/02 04:56:33;;;;;;;13.40;7.65;;;;;;;;;;5043860;28;20034;-44
2021/03/02 04:58:59;;;;;;;13.10;7.40;;;;;;;;;;5047718;28;20411;-46
2021/03/02 05:01:25;;;;;;;14.18;7.57;;;;;;;;;;5037620;28;20065;-48
2021/03/02 05:03:51;;;;;;;13.63;6.90;;;;;;;;;;5046418;28;20021;-47
2021/03/02 05:06:17;;;;;;;13.15;7.30;;;;;;;;;;5052259;28;20021;-44
2021/03/02 05:08:43;;;;;;;18.73;6.93;;;;;;;;;;5052127;28;20028;-45
2021/03/02 05:11:09;;;;;;;12.23;7.03;;;;;;;;;;5050955;28;20036;-45
2021/03/02 05:13:35;;;;;;;15.65;7.47;;;;;;;;;;5052162;28;20029;-48
2021/03/02 05:16:01;;;;;;;17.67;7.75;;;;;;;;;;5052446;28;20517;-45
2021/03/02 05:18:27;;;;;;;17.27;7.40;;;;;;;;;;5051404;28;20021;-48
2021/03/02 05:20:52;;;;;;;12.95;7.28;;;;;;;;;;5041652;28;20044;-45
2021/03/02 05:23:18;;;;;;;14.57;7.72;;;;;;;;;;5046324;28;20025;-46
2021/03/02 05:25:44;;;;;;;26.38;8.25;;;;;;;;;;5051797;28;20052;-46
2021/03/02 05:28:10;;;;;;;20.63;7.28;;;;;;;;;;5032572;28;20050;-47
2021/03/02 05:30:36;;;;;;;17.50;7.40;;;;;;;;;;5044434;28;20028;-46
2021/03/02 05:33:02;;;;;;;25.20;8.70;;;;;;;;;;5051598;28;20037;-45
2021/03/02 05:35:28;;;;;;;21.13;7.78;;;;;;;;;;5052035;28;20017;-45
2021/03/02 05:37:54;;;;;;;14.45;7.32;;;;;;;;;;5051951;28;20482;-46
2021/03/02 05:40:20;;;;;;;21.80;6.85;;;;;;;;;;5043218;28;20025;-47
2021/03/02 05:42:46;;;;;;;10.20;6.22;;;;;;;;;;5041028;28;20115;-45
2021/03/02 05:45:13;;;;;;;20.00;6.97;;;;;;;;;;5045698;28;20048;-46
2021/03/02 05:47:39;;;;;;;11.77;7.32;;;;;;;;;;5047696;28;20037;-45
2021/03/02 05:50:05;;;;;;;17.83;7.13;;;;;;;;;;5045530;28;20381;-45
2021/03/02 05:52:32;;;;;;;14.27;7.50;;;;;;;;;;5045635;28;20067;-45
2021/03/02 05:54:59;;;;;;;37.85;8.13;;;;;;;;;;5046269;28;20036;-45
2021/03/02 05:57:26;;;;;;;13.18;6.45;;;;;;;;;;5040087;28;20029;-48
2021/03/02 05:59:52;;;;;;;22.88;6.60;;;;;;;;;;5047058;28;20076;-45
2021/03/02 06:02:18;;;;;;;44.20;26.08;;;;;;;;;;5037335;28;20034;-46
2021/03/02 06:04:48;;;;;;;15.25;8.00;;;;;;;;;;5043448;28;20022;-45
2021/03/02 06:07:14;;;;;;;25.50;7.35;;;;;;;;;;5033082;28;20036;-45
2021/03/02 06:09:40;;;;;;;12.18;7.00;;;;;;;;;;5043909;28;20021;-46
2021/03/02 06:12:06;;;;;;;14.35;7.53;;;;;;;;;;5042102;28;20049;-47
2021/03/02 06:14:34;;;;;;;22.73;7.25;;;;;;;;;;5055544;28;20457;-47
2021/03/02 06:17:01;;;;;;;29.23;7.75;;;;;;;;;;5052365;28;20029;-45
2021/03/02 06:19:40;;;;;;;25.38;6.53;;;;;;;;;;5035741;28;20112;-46
2021/03/02 06:22:06;;;;;;;9.40;6.63;;;;;;;;;;5047552;28;20037;-46
2021/03/02 06:24:39;;;;;;;10.32;6.88;;;;;;;;;;5045773;28;20497;-46
2021/03/02 06:27:05;;;;;;;14.75;5.97;;;;;;;;;;5050245;28;20037;-46
2021/03/02 06:29:31;;;;;;;20.70;6.95;;;;;;;;;;5049194;28;20045;-45
2021/03/02 06:31:57;;;;;;;13.80;6.82;;;;;;;;;;5048488;28;20032;-45
2021/03/02 06:34:23;;;;;;;26.83;7.15;;;;;;;;;;5045579;28;20040;-45
2021/03/02 06:36:55;;;;;;;8.90;6.00;;;;;;;;;;5048200;28;20640;-45
2021/03/02 06:39:34;;;;;;;9.57;6.25;;;;;;;;;;5044077;28;20101;-46
2021/03/02 06:42:09;;;;;;;18.38;6.82;;;;;;;;;;5048566;28;20536;-44
2021/03/02 06:44:36;;;;;;;13.60;6.60;;;;;;;;;;5042679;28;20052;-47
2021/03/02 06:47:02;;;;;;;11.40;5.93;;;;;;;;;;5039274;28;20047;-45
2021/03/02 06:49:40;;;;;;;11.13;6.32;;;;;;;;;;5049305;28;20033;-44
2021/03/02 06:52:16;;;;;;;12.00;6.65;;;;;;;;;;5050812;28;20397;-44
2021/03/02 06:54:43;;;;;;;10.13;6.72;;;;;;;;;;5048336;28;20028;-46
2021/03/02 06:57:09;;;;;;;14.95;7.13;;;;;;;;;;5046231;28;20112;-46
2021/03/02 06:59:35;;;;;;;14.15;7.43;;;;;;;;;;5044771;28;20018;-47
2021/03/02 07:02:01;;;;;;;22.80;7.80;;;;;;;;;;5044450;28;20025;-46
2021/03/02 07:04:30;;;;;;;21.00;8.88;;;;;;;;;;5040736;28;20112;-47
2021/03/02 07:07:01;;;;;;;10.88;7.13;;;;;;;;;;5054170;28;20025;-46
2021/03/02 07:09:28;;;;;;;13.80;8.43;;;;;;;;;;5050482;28;20031;-45
2021/03/02 07:11:59;;;;;;;16.42;7.95;;;;;;;;;;5037934;28;20029;-45
2021/03/02 07:14:27;;;;;;;15.80;8.18;;;;;;;;;;5037033;28;20030;-46
2021/03/02 07:16:53;;;;;;;15.85;8.23;;;;;;;;;;5042549;28;20112;-45
2021/03/02 07:19:23;;;;;;;16.52;7.78;;;;;;;;;;5049463;28;20652;-45
2021/03/02 07:21:53;;;;;;;21.58;9.52;;;;;;;;;;5037939;28;20105;-46
2021/03/02 07:24:19;;;;;;;16.88;8.15;;;;;;;;;;5038088;28;20123;-46
2021/03/02 07:26:47;;;;;;;18.38;7.90;;;;;;;;;;5039887;28;20033;-45
2021/03/02 07:29:13;;;;;;;24.70;8.35;;;;;;;;;;5051901;28;20028;-46
2021/03/02 07:31:40;;;;;;;12.88;7.50;;;;;;;;;;5045193;28;20064;-46
2021/03/02 07:34:07;;;;;;;19.70;7.72;;;;;;;;;;5033948;28;20415;-46
2021/03/02 07:36:37;;;;;;;19.17;8.43;;;;;;;;;;5049706;28;20672;-44
2021/03/02 07:39:23;;;;;;;15.07;8.38;;;;;;;;;;5053511;28;20048;-44
2021/03/02 07:41:51;;;;;;;13.45;7.97;;;;;;;;;;5035632;28;20091;-47
2021/03/02 07:44:17;;;;;;;15.63;9.30;;;;;;;;;;5041165;28;20044;-46
2021/03/02 07:46:45;;;;;;;17.88;9.05;;;;;;;;;;5034361;28;20056;-48
2021/03/02 07:49:23;;;;;;;15.05;8.88;;;;;;;;;;5042642;28;20071;-46
2021/03/02 07:52:01;;;;;;;27.40;8.98;;;;;;;;;;5051399;28;20493;-45
2021/03/02 07:54:31;;;;;;;17.00;8.68;;;;;;;;;;5044801;28;20030;-46
2021/03/02 07:57:15;;;;;;;22.95;9.52;;;;;;;;;;5044249;28;20540;-46
2021/03/02 07:59:45;;;;;;;16.08;8.43;;;;;;;;;;5047142;28;20049;-45
2021/03/02 08:02:16;;;;;;;17.48;8.93;;;;;;;;;;5057249;28;20017;-48
2021/03/02 08:04:42;;;;;;;22.63;10.15;;;;;;;;;;5039685;28;20030;-49
2021/03/02 08:07:22;;;;;;;17.52;8.80;;;;;;;;;;5043476;28;20028;-46
2021/03/02 08:09:49;;;;;;;21.63;9.45;;;;;;;;;;5052278;28;20032;-46
2021/03/02 08:12:32;;;;;;;15.35;8.63;;;;;;;;;;5052755;28;20493;-47
2021/03/02 08:14:59;;;;;;;16.53;9.17;;;;;;;;;;5040152;28;20061;-46
2021/03/02 08:17:26;;;;;;;18.35;9.30;;;;;;;;;;5047384;28;20025;-46
2021/03/02 08:20:06;;;;;;;26.73;8.95;;;;;;;;;;5056284;28;20099;-45
2021/03/02 08:22:33;;;;;;;18.23;9.38;;;;;;;;;;5056005;28;20576;-47
2021/03/02 08:25:02;;;;;;;15.88;8.38;;;;;;;;;;5039953;28;20021;-47
2021/03/02 08:27:57;;;;;;;20.63;8.65;;;;;;;;;;5045443;28;20048;-48
2021/03/02 08:30:24;;;;;;;21.17;8.73;;;;;;;;;;5046853;28;20366;-45
2021/03/02 08:32:51;;;;;;;23.60;8.77;;;;;;;;;;5045532;28;20033;-46
2021/03/02 08:35:23;;;;;;;19.25;10.27;;;;;;;;;;5041728;28;20530;-46
2021/03/02 08:37:50;;;;;;;21.65;10.00;;;;;;;;;;5054311;28;20516;-45
2021/03/02 08:40:40;;;;;;;19.10;9.73;;;;;;;;;;5058970;28;20028;-45
2021/03/02 08:43:08;;;;;;;18.92;10.43;;;;;;;;;;5042645;28;20041;-46
2021/03/02 08:45:44;;;;;;;18.95;10.73;;;;;;;;;;5049699;28;20086;-48
2021/03/02 08:48:27;;;;;;;19.30;10.30;;;;;;;;;;5046288;28;20025;-50
2021/03/02 08:50:57;;;;;;;23.50;11.18;;;;;;;;;;5050583;28;20070;-46
2021/03/02 08:53:34;;;;;;;17.45;9.75;;;;;;;;;;5055542;28;20031;-46
2021/03/02 08:56:01;;;;;;;32.72;11.80;;;;;;;;;;5052575;28;20052;-47
2021/03/02 08:58:28;;;;;;;19.67;9.70;;;;;;;;;;5045332;28;20048;-46
2021/03/02 09:01:08;;;;;;;20.45;10.88;;;;;;;;;;5047347;28;20114;-49
2021/03/02 09:03:34;;;;;;;19.02;10.63;;;;;;;;;;5046213;28;20028;-47
2021/03/02 09:06:10;;;;;;;21.20;11.35;;;;;;;;;;5045262;28;20029;-49
2021/03/02 09:08:56;;;;;;;19.20;10.40;;;;;;;;;;5050271;28;20120;-49
2021/03/02 09:11:23;;;;;;;17.20;10.25;;;;;;;;;;5044891;28;20108;-47
2021/03/02 09:13:49;;;;;;;18.90;9.88;;;;;;;;;;5037667;28;20033;-46
2021/03/02 09:16:31;;;;;;;22.73;12.00;;;;;;;;;;5034230;28;20024;-46
2021/03/02 09:19:00;;;;;;;20.77;11.13;;;;;;;;;;5040190;28;20021;-46
2021/03/02 09:21:26;;;;;;;20.83;11.30;;;;;;;;;;5040849;28;20079;-46
2021/03/02 09:23:52;;;;;;;22.92;11.48;;;;;;;;;;5043746;28;20120;-48
2021/03/02 09:26:25;;;;;;;22.02;11.32;;;;;;;;;;5047849;28;20477;-50
2021/03/02 09:28:52;;;;;;;22.67;12.02;;;;;;;;;;5047460;28;20045;-46
2021/03/02 09:31:19;;;;;;;21.40;11.20;;;;;;;;;;5037020;28;20025;-47
2021/03/02 09:33:45;;;;;;;20.45;9.65;;;;;;;;;;5036920;28;20030;-47
2021/03/02 09:36:11;;;;;;;24.50;11.77;;;;;;;;;;5037083;28;20025;-47
2021/03/02 09:38:37;;;;;;;21.98;11.82;;;;;;;;;;5037198;28;20028;-50
2021/03/02 09:41:03;;;;;;;21.17;11.52;;;;;;;;;;5035651;28;20385;-48
2021/03/02 09:43:38;;;;;;;19.20;11.18;;;;;;;;;;5045357;28;20028;-46
2021/03/02 09:46:05;;;;;;;19.70;10.60;;;;;;;;;;5051933;28;20033;-48
2021/03/02 09:48:44;;;;;;;21.05;10.98;;;;;;;;;;5047965;28;20055;-51
2021/03/02 09:51:29;;;;;;;19.98;10.00;;;;;;;;;;5043711;28;20488;-47
2021/03/02 09:54:10;;;;;;;20.20;10.82;;;;;;;;;;5039234;28;20033;-48
2021/03/02 09:56:36;;;;;;;23.20;11.77;;;;;;;;;;5054872;28;20029;-50
2021/03/02 09:59:02;;;;;;;21.02;11.63;;;;;;;;;;5050177;28;20184;-46
2021/03/02 10:01:28;;;;;;;22.83;11.30;;;;;;;;;;5038839;28;20342;-48
2021/03/02 10:03:54;;;;;;;27.17;11.98;;;;;;;;;;5044859;28;20496;-48
2021/03/02 10:06:26;;;;;;;23.90;12.73;;;;;;;;;;5045832;28;20025;-47
2021/03/02 10:08:52;;;;;;;25.13;12.80;;;;;;;;;;5048391;28;20235;-48
2021/03/02 10:11:22;;;;;;;24.90;12.57;;;;;;;;;;5050983;28;20025;-49
2021/03/02 10:13:52;;;;;;;22.65;12.00;;;;;;;;;;5044073;28;20025;-48
2021/03/02 10:16:24;;;;;;;23.80;11.82;;;;;;;;;;5044285;28;20029;-47
2021/03/02 10:19:17;;;;;;;19.67;10.93;;;;;;;;;;5040159;28;20108;-46
2021/03/02 10:21:47;;;;;;;23.20;12.65;;;;;;;;;;5051647;28;20016;-48
2021/03/02 10:24:18;;;;;;;24.65;12.77;;;;;;;;;;5045704;28;20537;-48
2021/03/02 10:26:44;;;;;;;21.73;11.38;;;;;;;;;;5036260;28;20366;-46
2021/03/02 10:29:10;;;;;;;22.65;12.50;;;;;;;;;;5046469;28;20048;-48
2021/03/02 10:31:37;;;;;;;25.60;12.00;;;;;;;;;;5047482;28;20099;-51
2021/03/02 10:34:07;;;;;;;23.48;12.55;;;;;;;;;;5041273;28;20041;-48
2021/03/02 10:36:33;;;;;;;24.30;12.73;;;;;;;;;;5049438;28;20112;-49
2021/03/02 10:39:00;;;;;;;27.00;13.82;;;;;;;;;;5040812;28;20029;-50
2021/03/02 10:41:27;;;;;;;26.63;13.48;;;;;;;;;;5058637;28;20079;-47
2021/03/02 10:43:53;;;;;;;25.83;13.27;;;;;;;;;;5052826;28;20060;-47
2021/03/02 10:46:22;;;;;;;22.13;12.50;;;;;;;;;;5048249;28;20449;-47
2021/03/02 10:48:48;;;;;;;31.30;13.73;;;;;;;;;;5054835;28;22001;-47
2021/03/02 10:51:14;;;;;;;26.52;13.57;;;;;;;;;;5044932;28;20036;-48
2021/03/02 10:53:41;;;;;;;22.27;12.20;;;;;;;;;;5048755;28;20029;-47
2021/03/02 10:56:07;;;;;;;26.35;12.63;;;;;;;;;;5040660;28;20116;-47
2021/03/02 10:58:33;;;;;;;23.75;13.30;;;;;;;;;;5048926;28;20028;-47
2021/03/02 11:00:59;;;;;;;26.90;13.38;;;;;;;;;;5069905;28;20517;-46
2021/03/02 11:03:25;;;;;;;27.45;13.23;;;;;;;;;;5039046;28;20029;-46
2021/03/02 11:05:51;;;;;;;25.92;13.70;;;;;;;;;;5058817;28;20032;-48
2021/03/02 11:08:20;;;;;;;23.45;13.00;;;;;;;;;;5046628;28;20700;-49
2021/03/02 11:10:46;;;;;;;28.33;13.70;;;;;;;;;;5048185;28;20473;-48
2021/03/02 11:13:13;;;;;;;23.95;13.10;;;;;;;;;;5047902;28;20036;-47
2021/03/02 11:15:39;;;;;;;25.10;12.52;;;;;;;;;;5043657;28;20025;-49
2021/03/02 11:18:05;;;;;;;23.83;12.38;;;;;;;;;;5042265;28;20076;-47
2021/03/02 11:20:32;;;;;;;25.50;13.30;;;;;;;;;;5041135;28;20461;-48
2021/03/02 11:22:58;;;;;;;23.35;12.00;;;;;;;;;;5054894;28;20097;-48
2021/03/02 11:25:24;;;;;;;23.15;12.38;;;;;;;;;;5042549;28;20024;-47
2021/03/02 11:27:51;;;;;;;23.98;12.38;;;;;;;;;;5045730;28;20063;-47
2021/03/02 11:30:17;;;;;;;19.83;11.48;;;;;;;;;;5043219;28;20021;-48
2021/03/02 11:32:43;;;;;;;21.50;12.00;;;;;;;;;;5050502;28;20108;-46
2021/03/02 11:35:10;;;;;;;21.23;12.07;;;;;;;;;;5051229;28;20480;-48
2021/03/02 11:37:37;;;;;;;21.05;11.30;;;;;;;;;;5040455;28;20113;-48
2021/03/02 11:40:04;;;;;;;20.73;11.63;;;;;;;;;;5039960;28;20045;-47
2021/03/02 11:42:30;;;;;;;20.92;11.20;;;;;;;;;;5040947;28;20029;-47
2021/03/02 11:44:56;;;;;;;20.38;12.13;;;;;;;;;;5047407;28;20031;-47
2021/03/02 11:47:22;;;;;;;22.25;11.23;;;;;;;;;;5045784;28;20071;-48
2021/03/02 11:49:51;;;;;;;19.55;10.70;;;;;;;;;;5047586;28;20150;-47
2021/03/02 11:52:17;;;;;;;16.88;9.63;;;;;;;;;;5038909;28;20041;-46
2021/03/02 11:54:43;;;;;;;15.02;8.90;;;;;;;;;;5047928;28;20056;-47
2021/03/02 11:57:09;;;;;;;15.27;9.73;;;;;;;;;;5043312;28;20400;-47
2021/03/02 11:59:35;;;;;;;15.55;8.90;;;;;;;;;;5046201;28;20044;-47
2021/03/02 12:02:01;;;;;;;13.02;7.82;;;;;;;;;;5035295;28;20560;-50
2021/03/02 12:04:27;;;;;;;14.48;8.77;;;;;;;;;;5035522;28;20049;-47
2021/03/02 12:06:53;;;;;;;19.73;8.88;;;;;;;;;;5038098;28;20488;-50
2021/03/02 12:09:19;;;;;;;17.50;8.65;;;;;;;;;;5038768;28;20382;-49
2021/03/02 12:11:46;;;;;;;15.57;8.80;;;;;;;;;;5040136;28;20032;-49
2021/03/02 12:14:12;;;;;;;12.95;8.18;;;;;;;;;;5035923;28;20106;-51
2021/03/02 12:16:38;;;;;;;14.18;8.27;;;;;;;;;;5052457;28;20029;-49
2021/03/02 12:19:04;;;;;;;13.52;8.32;;;;;;;;;;5040348;28;20034;-47
2021/03/02 12:21:30;;;;;;;12.07;7.35;;;;;;;;;;5049441;28;20021;-48
2021/03/02 12:23:56;;;;;;;13.10;7.57;;;;;;;;;;5037579;28;20025;-47
2021/03/02 12:26:22;;;;;;;16.35;8.00;;;;;;;;;;5047222;28;20070;-47
2021/03/02 12:28:48;;;;;;;13.45;7.72;;;;;;;;;;5043996;28;20116;-46
2021/03/02 12:31:14;;;;;;;12.48;7.75;;;;;;;;;;5042504;28;20104;-45
2021/03/02 12:33:40;;;;;;;12.23;7.80;;;;;;;;;;5036258;28;20032;-47
2021/03/02 12:36:06;;;;;;;13.10;8.07;;;;;;;;;;5039484;28;20544;-47
2021/03/02 12:38:32;;;;;;;10.05;6.75;;;;;;;;;;5048081;28;20033;-48
2021/03/02 12:40:58;;;;;;;12.15;7.13;;;;;;;;;;5037670;28;20063;-48
2021/03/02 12:43:24;;;;;;;12.27;6.82;;;;;;;;;;5042312;28;20013;-47
2021/03/02 12:45:50;;;;;;;10.13;6.55;;;;;;;;;;5049460;28;20021;-48
2021/03/02 12:48:16;;;;;;;10.48;6.82;;;;;;;;;;5042456;28;20022;-47
2021/03/02 12:50:42;;;;;;;9.93;6.53;;;;;;;;;;5044734;28;20033;-50
2021/03/02 12:53:08;;;;;;;11.00;7.00;;;;;;;;;;5039955;28;20021;-47
2021/03/02 12:55:34;;;;;;;11.63;7.60;;;;;;;;;;5042267;28;20037;-47
2021/03/02 12:58:00;;;;;;;10.43;6.88;;;;;;;;;;5035984;28;20103;-46
2021/03/02 13:00:26;;;;;;;10.02;6.40;;;;;;;;;;5039827;28;20025;-46
2021/03/02 13:02:53;;;;;;;11.43;7.57;;;;;;;;;;5049028;28;20377;-46
2021/03/02 13:05:19;;;;;;;11.27;7.32;;;;;;;;;;5038024;28;20803;-46
2021/03/02 13:07:45;;;;;;;11.15;6.90;;;;;;;;;;5044589;28;20021;-50
2021/03/02 13:10:11;;;;;;;12.15;7.10;;;;;;;;;;5042449;28;20536;-46
2021/03/02 13:12:37;;;;;;;12.30;8.00;;;;;;;;;;5044598;28;20025;-45
2021/03/02 13:15:04;;;;;;;14.57;7.75;;;;;;;;;;5037207;28;20224;-48
2021/03/02 13:17:30;;;;;;;11.18;7.25;;;;;;;;;;5050611;28;20112;-45
2021/03/02 13:19:58;;;;;;;13.07;7.93;;;;;;;;;;5039277;28;20033;-45
2021/03/02 13:22:24;;;;;;;11.18;7.90;;;;;;;;;;5046364;28;20155;-47
2021/03/02 13:24:50;;;;;;;13.05;8.77;;;;;;;;;;5052447;28;20520;-46
2021/03/02 13:27:16;;;;;;;14.23;8.60;;;;;;;;;;5047993;28;20037;-49
2021/03/02 13:29:43;;;;;;;12.95;8.73;;;;;;;;;;5039829;28;20108;-46
2021/03/02 13:32:13;;;;;;;13.35;7.97;;;;;;;;;;5052393;28;20055;-45
2021/03/02 13:34:39;;;;;;;14.25;8.43;;;;;;;;;;5048470;28;20487;-48
2021/03/02 13:37:05;;;;;;;14.88;9.10;;;;;;;;;;5039740;28;20035;-47
2021/03/02 13:39:32;;;;;;;12.00;7.70;;;;;;;;;;5040711;28;20036;-46
2021/03/02 13:41:58;;;;;;;13.82;8.15;;;;;;;;;;5033824;28;20653;-49
2021/03/02 13:44:24;;;;;;;11.48;7.40;;;;;;;;;;5044231;28;20036;-49
2021/03/02 13:46:51;;;;;;;13.30;7.68;;;;;;;;;;5044303;28;20033;-46
2021/03/02 13:49:17;;;;;;;12.40;8.27;;;;;;;;;;5047036;28;20036;-50
2021/03/02 13:51:47;;;;;;;13.15;7.50;;;;;;;;;;5042022;28;20167;-46
2021/03/02 13:54:13;;;;;;;11.77;7.05;;;;;;;;;;5038550;28;20029;-48
2021/03/02 13:56:40;;;;;;;11.60;6.85;;;;;;;;;;5042791;28;20516;-49
2021/03/02 13:59:06;;;;;;;10.50;7.20;;;;;;;;;;5044960;28;20124;-46
2021/03/02 14:01:36;;;;;;;12.75;7.45;;;;;;;;;;5041353;28;20111;-48
2021/03/02 14:04:04;;;;;;;12.15;7.28;;;;;;;;;;5038651;28;20091;-46
2021/03/02 14:06:30;;;;;;;12.68;7.65;;;;;;;;;;5049630;28;20029;-48
2021/03/02 14:08:57;;;;;;;11.27;6.95;;;;;;;;;;5038772;28;20025;-46
2021/03/02 14:11:24;;;;;;;13.48;7.60;;;;;;;;;;5033588;28;20025;-48
2021/03/02 14:13:51;;;;;;;11.90;7.03;;;;;;;;;;5041021;28;20087;-49
2021/03/02 14:16:17;;;;;;;12.43;7.32;;;;;;;;;;5040342;28;20410;-48
2021/03/02 14:18:43;;;;;;;10.95;7.13;;;;;;;;;;5047107;28;20411;-46
2021/03/02 14:21:10;;;;;;;10.23;7.20;;;;;;;;;;5039327;28;20113;-45
2021/03/02 14:23:36;;;;;;;10.43;6.93;;;;;;;;;;5034973;28;20030;-45
2021/03/02 14:26:03;;;;;;;13.45;6.85;;;;;;;;;;5032671;28;20029;-46
2021/03/02 14:28:29;;;;;;;10.02;6.43;;;;;;;;;;5040430;28;20041;-47